createdAt,value
2022-12-26T00:05:44.498Z,100304.01
2022-12-26T00:20:35.337Z,100326.50
2022-12-26T00:35:26.855Z,100304.97
2022-12-26T00:50:18.389Z,100286.52
2022-12-26T01:05:09.943Z,100259.95
2022-12-26T01:20:01.097Z,100294.92
2022-12-26T01:34:52.365Z,100316.56
2022-12-26T01:49:43.695Z,100294.55
2022-12-26T02:04:52.998Z,100309.96
2022-12-26T02:20:04.925Z,100332.56
2022-12-26T02:35:06.375Z,100326.99
2022-12-26T02:50:41.916Z,100338.87
2022-12-26T03:06:08.599Z,100289.31
2022-12-26T03:21:08.223Z,100302.64
2022-12-26T03:35:58.021Z,100305.36
2022-12-26T03:51:06.875Z,100299.20
2022-12-26T04:06:22.093Z,100273.79
2022-12-26T04:21:46.018Z,100283.28
2022-12-26T04:37:01.536Z,100288.19
2022-12-26T04:51:55.596Z,100319.72
2022-12-26T05:07:03.823Z,100347.38
2022-12-26T05:22:17.705Z,100342.27
2022-12-26T05:37:12.801Z,100319.95
2022-12-26T05:52:03.863Z,100332.11
2022-12-26T06:06:55.391Z,100328.68
2022-12-26T06:21:47.048Z,100341.48
2022-12-26T06:36:38.974Z,100393.27
2022-12-26T06:51:29.070Z,100413.42
2022-12-26T07:06:24.149Z,100405.77
2022-12-26T07:21:19.127Z,100407.83
2022-12-26T07:36:10.329Z,100421.36
2022-12-26T07:51:02.148Z,100456.93
2022-12-26T08:05:52.720Z,100463.77
2022-12-26T08:20:44.032Z,100506.48
2022-12-26T08:35:34.576Z,100552.66
2022-12-26T08:50:25.673Z,100555.34
2022-12-26T09:05:15.534Z,100577.36
2022-12-26T09:20:06.739Z,100564.00
2022-12-26T09:35:00.139Z,100597.73
2022-12-26T09:49:51.050Z,100629.73
2022-12-26T10:04:43.043Z,100607.00
2022-12-26T10:19:39.626Z,100623.75
2022-12-26T10:34:50.301Z,100630.00
2022-12-26T10:49:46.590Z,100614.67
2022-12-26T11:05:11.149Z,100594.64
2022-12-26T11:19:31.290Z,100594.72
2022-12-26T11:34:25.686Z,100591.69
2022-12-26T11:49:21.581Z,100599.94
2022-12-26T12:04:16.017Z,100582.53
2022-12-26T12:19:13.458Z,100588.48
2022-12-26T12:34:14.614Z,100588.24
2022-12-26T12:49:35.462Z,100587.56
2022-12-26T13:19:40.529Z,100582.38
2022-12-26T13:34:34.592Z,100568.38
2022-12-26T13:49:40.186Z,100558.27
2022-12-26T14:05:12.667Z,100549.25
2022-12-26T14:20:21.213Z,100573.06
2022-12-26T14:35:28.526Z,100593.02
2022-12-26T14:50:32.208Z,100595.34
2022-12-26T15:05:33.148Z,100553.97
2022-12-26T15:20:49.752Z,100565.41
2022-12-26T15:35:47.972Z,100555.37
2022-12-26T15:50:58.289Z,100592.25
2022-12-26T16:05:54.337Z,100592.18
2022-12-26T16:21:04.107Z,100609.41
2022-12-26T16:36:01.488Z,100623.70
2022-12-26T16:50:54.798Z,100619.93
2022-12-26T17:05:49.785Z,100613.53
2022-12-26T17:20:41.569Z,100622.08
2022-12-26T17:35:47.125Z,100662.12
2022-12-26T17:50:24.787Z,100694.64
2022-12-26T18:05:17.764Z,100714.87
2022-12-26T18:20:19.490Z,100737.81
2022-12-26T18:35:14.687Z,100816.49
2022-12-26T18:50:04.878Z,100840.47
2022-12-26T19:04:56.666Z,100841.86
2022-12-26T19:19:47.647Z,100881.78
2022-12-26T19:34:37.404Z,100907.98
2022-12-26T19:49:33.577Z,100922.33
2022-12-26T20:04:18.952Z,100950.40
2022-12-26T20:19:09.554Z,100994.08
2022-12-26T20:34:00.492Z,101027.45
2022-12-26T20:48:51.557Z,101062.78
2022-12-26T21:03:43.340Z,101094.94
2022-12-26T21:18:35.000Z,101132.56
2022-12-26T21:33:25.433Z,101173.27
2022-12-26T22:03:25.360Z,101216.60
2022-12-26T22:18:21.276Z,101228.62
2022-12-26T22:33:10.988Z,101261.63
2022-12-26T22:48:00.295Z,101298.16
2022-12-26T23:02:51.009Z,101327.17
2022-12-26T23:18:00.430Z,101353.02
2022-12-26T23:32:54.786Z,101377.62
2022-12-26T23:47:44.308Z,101406.09
